Elvira, Illinois
Current Conditions -  °F | °C
As of 3:46 PM on Friday 24 Oct 2014 (Local Time) from KMWA Reporting Station
Scattered Clouds Scattered Clouds  
Wind Chill: 70°   Ceiling: Unl
Heat Index: 70°   Visibility: 20mi
Dew Point: 54°   Wind: 8mph
Humidity: 56%   Direction: 260°W
Pressure: 30.07"   Gusts: NA
Location:  37.4664°N, 88.9884°W
Report Text: KMWA 242046Z 26007KT 20SM SCT037 21/12 A3007
Loading
Personal Weather Stations






























Interactive Weather Map
Tropical Storm Tracking
New forecast layout! Learn more

10-Day Weather Forecast

Advertisements
Track Severe Weather on mobile